createdAt,value
2019-04-28T20:24:48.414Z,3.35
2019-04-28T20:27:18.918Z,4.03
2019-04-28T20:29:48.606Z,4.10
2019-04-28T20:32:18.249Z,3.92
2019-04-28T20:34:47.916Z,4.15
2019-04-28T20:37:28.491Z,4.08
2019-04-28T20:40:08.853Z,4.92
2019-04-28T20:42:40.986Z,4.60
2019-04-28T20:45:12.302Z,4.92
2019-04-28T20:47:41.907Z,4.95
2019-04-28T20:50:11.819Z,5.40
2019-04-28T20:52:41.703Z,5.62
2019-04-28T20:55:11.607Z,5.45
2019-04-28T20:57:41.283Z,5.45
2019-04-28T21:00:11.170Z,5.78
2019-04-28T21:02:40.784Z,5.42
2019-04-28T21:05:10.457Z,5.53
2019-04-28T21:07:40.164Z,5.75
2019-04-28T21:10:10.653Z,5.47
2019-04-28T21:12:40.285Z,5.08
2019-04-28T21:15:10.397Z,5.62
2019-04-28T21:17:39.956Z,5.70
2019-04-28T21:20:09.935Z,5.50
2019-04-28T21:22:39.647Z,6.25
2019-04-28T21:25:10.872Z,5.25
2019-04-28T21:27:40.485Z,6.33
2019-04-28T21:30:10.977Z,5.67
2019-04-28T21:32:40.578Z,5.17
2019-04-28T21:35:10.186Z,6.10
2019-04-28T21:37:39.788Z,5.62
2019-04-28T21:40:12.021Z,6.50
2019-04-28T21:43:00.079Z,6.00
2019-04-28T21:45:50.145Z,5.67
2019-04-28T21:48:32.414Z,6.25
2019-04-28T21:51:02.147Z,5.95
2019-04-28T21:53:31.763Z,5.85
2019-04-28T21:56:01.690Z,5.90
2019-04-28T21:58:33.196Z,5.47
2019-04-28T22:01:02.742Z,5.58
2019-04-28T22:03:32.816Z,5.62
2019-04-28T22:06:02.412Z,5.35
2019-04-28T22:08:32.267Z,5.03
2019-04-28T22:11:01.854Z,5.25
2019-04-28T22:13:31.759Z,4.95
2019-04-28T22:16:01.352Z,5.05
2019-04-28T22:18:30.986Z,4.90
2019-04-28T22:21:00.571Z,4.87
2019-04-28T22:23:46.739Z,4.95
2019-04-28T22:26:34.136Z,4.62
2019-04-28T22:29:03.709Z,4.87
2019-04-28T22:31:33.394Z,5.20
2019-04-28T22:34:02.997Z,4.90
2019-04-28T22:36:32.819Z,5.00
2019-04-28T22:39:02.426Z,4.72
2019-04-28T22:41:32.024Z,5.12
2019-04-28T22:44:01.621Z,4.65
2019-04-28T22:46:31.287Z,4.87
2019-04-28T22:49:02.526Z,5.08
2019-04-28T22:51:32.733Z,5.47
2019-04-28T22:54:22.009Z,5.10
2019-04-28T22:56:53.240Z,5.20
2019-04-28T22:59:24.499Z,5.33
2019-04-28T23:02:13.666Z,5.55
2019-04-28T23:04:45.048Z,4.97
2019-04-28T23:07:14.861Z,5.35
2019-04-28T23:09:44.541Z,5.42
2019-04-28T23:12:14.338Z,6.37
2019-04-28T23:14:44.179Z,6.47
2019-04-28T23:17:16.945Z,6.08
2019-04-28T23:19:46.606Z,5.87
2019-04-28T23:22:18.087Z,5.75
2019-04-28T23:24:47.693Z,5.97
2019-04-28T23:27:17.350Z,6.05
2019-04-28T23:29:46.977Z,5.85
2019-04-28T23:32:16.716Z,5.85
2019-04-28T23:34:46.341Z,5.97
2019-04-28T23:37:16.133Z,6.25
2019-04-28T23:39:45.678Z,6.10
2019-04-28T23:42:19.680Z,5.50
2019-04-28T23:44:49.323Z,5.62
2019-04-28T23:47:19.010Z,6.10
2019-04-28T23:49:48.619Z,5.37
2019-04-28T23:52:18.004Z,6.08
2019-04-28T23:54:49.523Z,5.20
2019-04-28T23:57:19.354Z,5.83
2019-04-28T23:59:49.213Z,5.92
